sensor_id;sensor_type;location;lat;lon;timestamp;P1;durP1;ratioP1;P2;durP2;ratioP2
39958;SDS011;25639;53.634;9.880;2023-12-20T00:00:34;21.98;;;2.75;;
39958;SDS011;25639;53.634;9.880;2023-12-20T00:02:59;17.98;;;2.70;;
39958;SDS011;25639;53.634;9.880;2023-12-20T00:05:25;26.83;;;3.85;;
39958;SDS011;25639;53.634;9.880;2023-12-20T00:07:50;19.13;;;3.55;;
39958;SDS011;25639;53.634;9.880;2023-12-20T00:10:15;27.60;;;4.22;;
39958;SDS011;25639;53.634;9.880;2023-12-20T00:12:41;15.90;;;3.65;;
39958;SDS011;25639;53.634;9.880;2023-12-20T00:15:06;16.38;;;2.30;;
39958;SDS011;25639;53.634;9.880;2023-12-20T00:17:32;22.27;;;2.60;;
39958;SDS011;25639;53.634;9.880;2023-12-20T00:19:57;20.65;;;3.30;;
39958;SDS011;25639;53.634;9.880;2023-12-20T00:22:22;23.13;;;2.65;;
39958;SDS011;25639;53.634;9.880;2023-12-20T00:24:47;15.57;;;2.70;;
39958;SDS011;25639;53.634;9.880;2023-12-20T00:27:12;18.23;;;3.30;;
39958;SDS011;25639;53.634;9.880;2023-12-20T00:29:38;25.67;;;2.55;;
39958;SDS011;25639;53.634;9.880;2023-12-20T00:32:03;27.35;;;2.97;;
39958;SDS011;25639;53.634;9.880;2023-12-20T00:34:29;22.42;;;4.35;;
39958;SDS011;25639;53.634;9.880;2023-12-20T00:36:54;32.30;;;2.88;;
39958;SDS011;25639;53.634;9.880;2023-12-20T00:39:20;25.63;;;3.00;;
39958;SDS011;25639;53.634;9.880;2023-12-20T00:41:45;19.58;;;2.35;;
39958;SDS011;25639;53.634;9.880;2023-12-20T00:44:10;29.00;;;2.50;;
39958;SDS011;25639;53.634;9.880;2023-12-20T00:46:35;18.45;;;3.40;;
39958;SDS011;25639;53.634;9.880;2023-12-20T00:49:01;27.67;;;3.08;;
39958;SDS011;25639;53.634;9.880;2023-12-20T00:51:26;17.63;;;2.78;;
39958;SDS011;25639;53.634;9.880;2023-12-20T00:53:51;25.13;;;2.42;;
39958;SDS011;25639;53.634;9.880;2023-12-20T00:56:19;19.42;;;2.17;;
39958;SDS011;25639;53.634;9.880;2023-12-20T00:58:45;26.95;;;3.30;;
39958;SDS011;25639;53.634;9.880;2023-12-20T01:01:10;23.02;;;2.28;;
39958;SDS011;25639;53.634;9.880;2023-12-20T01:03:35;22.65;;;2.75;;
39958;SDS011;25639;53.634;9.880;2023-12-20T01:06:01;33.28;;;5.13;;
39958;SDS011;25639;53.634;9.880;2023-12-20T01:08:26;22.75;;;2.58;;
39958;SDS011;25639;53.634;9.880;2023-12-20T01:10:51;28.65;;;2.65;;
39958;SDS011;25639;53.634;9.880;2023-12-20T01:13:17;30.95;;;2.10;;
39958;SDS011;25639;53.634;9.880;2023-12-20T01:15:42;22.73;;;1.98;;
39958;SDS011;25639;53.634;9.880;2023-12-20T01:18:07;26.17;;;2.67;;
39958;SDS011;25639;53.634;9.880;2023-12-20T01:20:32;26.77;;;2.85;;
39958;SDS011;25639;53.634;9.880;2023-12-20T01:22:58;30.15;;;3.03;;
39958;SDS011;25639;53.634;9.880;2023-12-20T01:25:23;28.05;;;2.63;;
39958;SDS011;25639;53.634;9.880;2023-12-20T01:27:48;25.40;;;2.50;;
39958;SDS011;25639;53.634;9.880;2023-12-20T01:30:14;22.60;;;2.63;;
39958;SDS011;25639;53.634;9.880;2023-12-20T01:32:39;22.35;;;3.10;;
39958;SDS011;25639;53.634;9.880;2023-12-20T01:35:05;17.10;;;2.30;;
39958;SDS011;25639;53.634;9.880;2023-12-20T01:37:30;29.02;;;2.58;;
39958;SDS011;25639;53.634;9.880;2023-12-20T01:39:56;22.13;;;2.40;;
39958;SDS011;25639;53.634;9.880;2023-12-20T01:42:21;20.20;;;2.20;;
39958;SDS011;25639;53.634;9.880;2023-12-20T01:44:47;22.23;;;3.03;;
39958;SDS011;25639;53.634;9.880;2023-12-20T01:47:13;22.70;;;2.40;;
39958;SDS011;25639;53.634;9.880;2023-12-20T01:49:38;28.42;;;2.20;;
39958;SDS011;25639;53.634;9.880;2023-12-20T01:52:04;21.70;;;2.60;;
39958;SDS011;25639;53.634;9.880;2023-12-20T01:54:30;26.55;;;3.55;;
39958;SDS011;25639;53.634;9.880;2023-12-20T01:56:55;28.58;;;3.00;;
39958;SDS011;25639;53.634;9.880;2023-12-20T01:59:21;23.48;;;3.15;;
39958;SDS011;25639;53.634;9.880;2023-12-20T02:01:46;15.40;;;2.63;;
39958;SDS011;25639;53.634;9.880;2023-12-20T02:04:12;25.80;;;2.47;;
39958;SDS011;25639;53.634;9.880;2023-12-20T02:06:38;20.15;;;2.15;;
39958;SDS011;25639;53.634;9.880;2023-12-20T02:09:05;23.70;;;2.50;;
39958;SDS011;25639;53.634;9.880;2023-12-20T02:11:30;24.88;;;3.00;;
39958;SDS011;25639;53.634;9.880;2023-12-20T02:13:56;28.35;;;2.90;;
39958;SDS011;25639;53.634;9.880;2023-12-20T02:16:21;20.23;;;2.47;;
39958;SDS011;25639;53.634;9.880;2023-12-20T02:18:47;18.00;;;2.67;;
39958;SDS011;25639;53.634;9.880;2023-12-20T02:21:12;18.80;;;2.13;;
39958;SDS011;25639;53.634;9.880;2023-12-20T02:23:37;22.90;;;2.28;;
39958;SDS011;25639;53.634;9.880;2023-12-20T02:26:03;17.58;;;2.67;;
39958;SDS011;25639;53.634;9.880;2023-12-20T02:28:29;22.67;;;2.75;;
39958;SDS011;25639;53.634;9.880;2023-12-20T02:30:55;29.40;;;2.55;;
39958;SDS011;25639;53.634;9.880;2023-12-20T02:33:21;26.42;;;3.15;;
39958;SDS011;25639;53.634;9.880;2023-12-20T02:35:46;23.25;;;2.35;;
39958;SDS011;25639;53.634;9.880;2023-12-20T02:38:12;16.73;;;2.13;;
39958;SDS011;25639;53.634;9.880;2023-12-20T02:40:37;19.98;;;2.50;;
39958;SDS011;25639;53.634;9.880;2023-12-20T02:43:02;25.35;;;2.90;;
39958;SDS011;25639;53.634;9.880;2023-12-20T02:45:28;29.42;;;4.95;;
39958;SDS011;25639;53.634;9.880;2023-12-20T02:47:53;23.23;;;2.55;;
39958;SDS011;25639;53.634;9.880;2023-12-20T02:50:18;29.83;;;3.00;;
39958;SDS011;25639;53.634;9.880;2023-12-20T02:52:47;23.10;;;2.25;;
39958;SDS011;25639;53.634;9.880;2023-12-20T02:55:12;18.23;;;3.13;;
39958;SDS011;25639;53.634;9.880;2023-12-20T02:57:37;34.90;;;2.80;;
39958;SDS011;25639;53.634;9.880;2023-12-20T03:00:07;25.80;;;2.55;;
39958;SDS011;25639;53.634;9.880;2023-12-20T03:02:35;26.05;;;2.75;;
39958;SDS011;25639;53.634;9.880;2023-12-20T03:05:01;20.63;;;3.20;;
39958;SDS011;25639;53.634;9.880;2023-12-20T03:07:27;21.70;;;2.05;;
39958;SDS011;25639;53.634;9.880;2023-12-20T03:09:52;21.52;;;2.10;;
39958;SDS011;25639;53.634;9.880;2023-12-20T03:12:17;19.17;;;2.92;;
39958;SDS011;25639;53.634;9.880;2023-12-20T03:14:43;29.30;;;2.97;;
39958;SDS011;25639;53.634;9.880;2023-12-20T03:17:09;23.38;;;3.35;;
39958;SDS011;25639;53.634;9.880;2023-12-20T03:19:34;17.10;;;2.20;;
39958;SDS011;25639;53.634;9.880;2023-12-20T03:21:59;20.52;;;2.85;;
39958;SDS011;25639;53.634;9.880;2023-12-20T03:24:26;31.75;;;3.20;;
39958;SDS011;25639;53.634;9.880;2023-12-20T03:26:51;21.73;;;2.22;;
39958;SDS011;25639;53.634;9.880;2023-12-20T03:29:16;20.65;;;3.22;;
39958;SDS011;25639;53.634;9.880;2023-12-20T03:31:41;25.38;;;2.50;;
39958;SDS011;25639;53.634;9.880;2023-12-20T03:34:07;19.30;;;2.67;;
39958;SDS011;25639;53.634;9.880;2023-12-20T03:36:32;17.58;;;2.42;;
39958;SDS011;25639;53.634;9.880;2023-12-20T03:38:57;19.27;;;2.15;;
39958;SDS011;25639;53.634;9.880;2023-12-20T03:41:22;17.52;;;2.65;;
39958;SDS011;25639;53.634;9.880;2023-12-20T03:43:48;21.73;;;2.42;;
39958;SDS011;25639;53.634;9.880;2023-12-20T03:46:13;22.85;;;2.10;;
39958;SDS011;25639;53.634;9.880;2023-12-20T03:48:38;22.27;;;2.42;;
39958;SDS011;25639;53.634;9.880;2023-12-20T03:51:03;31.10;;;2.17;;
39958;SDS011;25639;53.634;9.880;2023-12-20T03:53:29;20.70;;;2.38;;
39958;SDS011;25639;53.634;9.880;2023-12-20T03:55:54;16.15;;;1.92;;
39958;SDS011;25639;53.634;9.880;2023-12-20T03:58:19;23.48;;;2.17;;
39958;SDS011;25639;53.634;9.880;2023-12-20T04:00:44;16.70;;;2.28;;
39958;SDS011;25639;53.634;9.880;2023-12-20T04:03:10;17.58;;;2.00;;
39958;SDS011;25639;53.634;9.880;2023-12-20T04:05:38;14.65;;;2.30;;
39958;SDS011;25639;53.634;9.880;2023-12-20T04:08:03;10.40;;;2.28;;
39958;SDS011;25639;53.634;9.880;2023-12-20T04:10:29;21.13;;;2.13;;
39958;SDS011;25639;53.634;9.880;2023-12-20T04:12:54;19.80;;;3.35;;
39958;SDS011;25639;53.634;9.880;2023-12-20T04:15:20;25.42;;;3.75;;
39958;SDS011;25639;53.634;9.880;2023-12-20T04:17:45;22.50;;;2.35;;
39958;SDS011;25639;53.634;9.880;2023-12-20T04:20:11;14.13;;;2.13;;
39958;SDS011;25639;53.634;9.880;2023-12-20T04:22:36;20.67;;;2.72;;
39958;SDS011;25639;53.634;9.880;2023-12-20T04:25:01;22.65;;;2.45;;
39958;SDS011;25639;53.634;9.880;2023-12-20T04:27:27;15.80;;;2.35;;
39958;SDS011;25639;53.634;9.880;2023-12-20T04:29:52;15.38;;;2.15;;
39958;SDS011;25639;53.634;9.880;2023-12-20T04:32:17;35.15;;;3.45;;
39958;SDS011;25639;53.634;9.880;2023-12-20T04:34:43;16.88;;;2.30;;
39958;SDS011;25639;53.634;9.880;2023-12-20T04:37:08;26.85;;;2.28;;
39958;SDS011;25639;53.634;9.880;2023-12-20T04:39:33;19.67;;;2.92;;
39958;SDS011;25639;53.634;9.880;2023-12-20T04:41:58;27.40;;;3.65;;
39958;SDS011;25639;53.634;9.880;2023-12-20T04:44:24;20.70;;;2.30;;
39958;SDS011;25639;53.634;9.880;2023-12-20T04:46:49;22.88;;;3.45;;
39958;SDS011;25639;53.634;9.880;2023-12-20T04:49:14;18.02;;;2.70;;
39958;SDS011;25639;53.634;9.880;2023-12-20T04:51:40;18.02;;;2.70;;
39958;SDS011;25639;53.634;9.880;2023-12-20T04:54:05;25.23;;;3.35;;
39958;SDS011;25639;53.634;9.880;2023-12-20T04:56:30;17.73;;;2.38;;
39958;SDS011;25639;53.634;9.880;2023-12-20T04:58:55;20.23;;;3.10;;
39958;SDS011;25639;53.634;9.880;2023-12-20T05:01:20;17.95;;;2.65;;
39958;SDS011;25639;53.634;9.880;2023-12-20T05:03:46;19.13;;;2.20;;
39958;SDS011;25639;53.634;9.880;2023-12-20T05:06:12;17.58;;;2.10;;
39958;SDS011;25639;53.634;9.880;2023-12-20T05:08:37;24.27;;;2.95;;
39958;SDS011;25639;53.634;9.880;2023-12-20T05:11:02;19.60;;;2.70;;
39958;SDS011;25639;53.634;9.880;2023-12-20T05:13:28;23.17;;;2.90;;
39958;SDS011;25639;53.634;9.880;2023-12-20T05:15:53;22.70;;;2.67;;
39958;SDS011;25639;53.634;9.880;2023-12-20T05:18:20;21.45;;;2.92;;
39958;SDS011;25639;53.634;9.880;2023-12-20T05:20:46;29.63;;;2.80;;
39958;SDS011;25639;53.634;9.880;2023-12-20T05:23:11;19.30;;;3.13;;
39958;SDS011;25639;53.634;9.880;2023-12-20T05:25:41;21.05;;;2.72;;
39958;SDS011;25639;53.634;9.880;2023-12-20T05:28:07;18.23;;;2.60;;
39958;SDS011;25639;53.634;9.880;2023-12-20T05:30:32;20.95;;;2.60;;
39958;SDS011;25639;53.634;9.880;2023-12-20T05:32:57;23.50;;;3.28;;
39958;SDS011;25639;53.634;9.880;2023-12-20T05:35:23;28.17;;;3.25;;
39958;SDS011;25639;53.634;9.880;2023-12-20T05:37:48;29.50;;;3.08;;
39958;SDS011;25639;53.634;9.880;2023-12-20T05:40:14;25.35;;;3.53;;
39958;SDS011;25639;53.634;9.880;2023-12-20T05:42:39;30.17;;;3.47;;
39958;SDS011;25639;53.634;9.880;2023-12-20T05:45:04;21.88;;;3.05;;
39958;SDS011;25639;53.634;9.880;2023-12-20T05:47:30;28.42;;;3.95;;
39958;SDS011;25639;53.634;9.880;2023-12-20T05:49:56;26.83;;;3.42;;
39958;SDS011;25639;53.634;9.880;2023-12-20T05:52:21;26.83;;;3.50;;
39958;SDS011;25639;53.634;9.880;2023-12-20T05:54:46;19.70;;;2.72;;
39958;SDS011;25639;53.634;9.880;2023-12-20T05:57:12;27.23;;;4.43;;
39958;SDS011;25639;53.634;9.880;2023-12-20T05:59:37;29.23;;;2.95;;
39958;SDS011;25639;53.634;9.880;2023-12-20T06:02:03;17.92;;;3.03;;
39958;SDS011;25639;53.634;9.880;2023-12-20T06:04:29;20.13;;;2.88;;
39958;SDS011;25639;53.634;9.880;2023-12-20T06:06:54;22.83;;;2.85;;
39958;SDS011;25639;53.634;9.880;2023-12-20T06:09:20;19.80;;;3.28;;
39958;SDS011;25639;53.634;9.880;2023-12-20T06:11:45;21.63;;;2.95;;
39958;SDS011;25639;53.634;9.880;2023-12-20T06:14:10;27.65;;;3.97;;
39958;SDS011;25639;53.634;9.880;2023-12-20T06:16:36;24.63;;;3.47;;
39958;SDS011;25639;53.634;9.880;2023-12-20T06:19:01;19.80;;;3.03;;
39958;SDS011;25639;53.634;9.880;2023-12-20T06:21:26;35.65;;;3.30;;
39958;SDS011;25639;53.634;9.880;2023-12-20T06:23:51;28.70;;;3.55;;
39958;SDS011;25639;53.634;9.880;2023-12-20T06:26:17;28.30;;;3.60;;
39958;SDS011;25639;53.634;9.880;2023-12-20T06:28:42;22.98;;;3.40;;
39958;SDS011;25639;53.634;9.880;2023-12-20T06:31:07;26.27;;;3.42;;
39958;SDS011;25639;53.634;9.880;2023-12-20T06:33:33;21.48;;;3.22;;
39958;SDS011;25639;53.634;9.880;2023-12-20T06:35:59;24.60;;;3.38;;
39958;SDS011;25639;53.634;9.880;2023-12-20T06:38:24;29.58;;;3.45;;
39958;SDS011;25639;53.634;9.880;2023-12-20T06:40:49;23.20;;;2.95;;
39958;SDS011;25639;53.634;9.880;2023-12-20T06:43:15;23.40;;;3.80;;
39958;SDS011;25639;53.634;9.880;2023-12-20T06:45:40;21.30;;;2.88;;
39958;SDS011;25639;53.634;9.880;2023-12-20T06:48:06;26.20;;;3.30;;
39958;SDS011;25639;53.634;9.880;2023-12-20T06:50:31;22.98;;;3.65;;
39958;SDS011;25639;53.634;9.880;2023-12-20T06:52:56;23.13;;;2.83;;
39958;SDS011;25639;53.634;9.880;2023-12-20T06:55:22;28.17;;;3.08;;
39958;SDS011;25639;53.634;9.880;2023-12-20T06:57:48;28.65;;;3.40;;
39958;SDS011;25639;53.634;9.880;2023-12-20T07:00:13;19.27;;;3.00;;
39958;SDS011;25639;53.634;9.880;2023-12-20T07:02:39;32.05;;;3.55;;
39958;SDS011;25639;53.634;9.880;2023-12-20T07:05:04;30.35;;;3.03;;
39958;SDS011;25639;53.634;9.880;2023-12-20T07:07:30;23.83;;;3.13;;
39958;SDS011;25639;53.634;9.880;2023-12-20T07:09:55;23.02;;;3.03;;
39958;SDS011;25639;53.634;9.880;2023-12-20T07:12:21;22.70;;;2.92;;
39958;SDS011;25639;53.634;9.880;2023-12-20T07:14:46;28.13;;;3.53;;
39958;SDS011;25639;53.634;9.880;2023-12-20T07:17:12;27.15;;;4.22;;
39958;SDS011;25639;53.634;9.880;2023-12-20T07:19:39;26.75;;;3.38;;
39958;SDS011;25639;53.634;9.880;2023-12-20T07:22:05;29.23;;;3.95;;
39958;SDS011;25639;53.634;9.880;2023-12-20T07:24:31;26.55;;;3.47;;
39958;SDS011;25639;53.634;9.880;2023-12-20T07:26:57;27.42;;;4.10;;
39958;SDS011;25639;53.634;9.880;2023-12-20T07:29:22;31.52;;;3.65;;
39958;SDS011;25639;53.634;9.880;2023-12-20T07:31:47;23.27;;;4.25;;
39958;SDS011;25639;53.634;9.880;2023-12-20T07:34:12;30.05;;;4.07;;
39958;SDS011;25639;53.634;9.880;2023-12-20T07:36:38;30.10;;;3.90;;
39958;SDS011;25639;53.634;9.880;2023-12-20T07:39:03;45.33;;;5.10;;
39958;SDS011;25639;53.634;9.880;2023-12-20T07:41:28;30.05;;;4.30;;
39958;SDS011;25639;53.634;9.880;2023-12-20T07:43:53;32.13;;;4.63;;
39958;SDS011;25639;53.634;9.880;2023-12-20T07:46:20;30.70;;;4.18;;
39958;SDS011;25639;53.634;9.880;2023-12-20T07:48:47;27.42;;;3.78;;
39958;SDS011;25639;53.634;9.880;2023-12-20T07:51:13;31.73;;;4.20;;
39958;SDS011;25639;53.634;9.880;2023-12-20T07:53:38;27.92;;;4.43;;
39958;SDS011;25639;53.634;9.880;2023-12-20T07:56:12;30.00;;;3.45;;
39958;SDS011;25639;53.634;9.880;2023-12-20T07:58:39;28.25;;;3.53;;
39958;SDS011;25639;53.634;9.880;2023-12-20T08:01:04;26.92;;;3.08;;
39958;SDS011;25639;53.634;9.880;2023-12-20T08:03:29;22.35;;;3.55;;
39958;SDS011;25639;53.634;9.880;2023-12-20T08:05:55;22.65;;;3.38;;
39958;SDS011;25639;53.634;9.880;2023-12-20T08:08:21;28.63;;;3.58;;
39958;SDS011;25639;53.634;9.880;2023-12-20T08:10:46;27.63;;;3.50;;
39958;SDS011;25639;53.634;9.880;2023-12-20T08:13:12;27.45;;;4.07;;
39958;SDS011;25639;53.634;9.880;2023-12-20T08:15:37;24.95;;;2.85;;
39958;SDS011;25639;53.634;9.880;2023-12-20T08:18:02;20.35;;;2.95;;
39958;SDS011;25639;53.634;9.880;2023-12-20T08:20:28;27.52;;;3.55;;
39958;SDS011;25639;53.634;9.880;2023-12-20T08:22:53;24.30;;;3.15;;
39958;SDS011;25639;53.634;9.880;2023-12-20T08:25:18;29.73;;;4.32;;
39958;SDS011;25639;53.634;9.880;2023-12-20T08:27:44;32.42;;;3.78;;
39958;SDS011;25639;53.634;9.880;2023-12-20T08:30:09;24.92;;;3.35;;
39958;SDS011;25639;53.634;9.880;2023-12-20T08:32:35;38.92;;;3.40;;
39958;SDS011;25639;53.634;9.880;2023-12-20T08:35:00;25.58;;;3.65;;
39958;SDS011;25639;53.634;9.880;2023-12-20T08:37:26;22.95;;;3.80;;
39958;SDS011;25639;53.634;9.880;2023-12-20T08:39:52;23.38;;;4.18;;
39958;SDS011;25639;53.634;9.880;2023-12-20T08:42:17;26.90;;;4.43;;
39958;SDS011;25639;53.634;9.880;2023-12-20T08:44:43;21.20;;;4.13;;
39958;SDS011;25639;53.634;9.880;2023-12-20T08:47:08;26.02;;;4.00;;
39958;SDS011;25639;53.634;9.880;2023-12-20T08:49:38;21.38;;;3.40;;
39958;SDS011;25639;53.634;9.880;2023-12-20T08:52:04;26.27;;;4.05;;
39958;SDS011;25639;53.634;9.880;2023-12-20T08:54:29;31.58;;;4.03;;
39958;SDS011;25639;53.634;9.880;2023-12-20T08:56:54;23.20;;;3.05;;
39958;SDS011;25639;53.634;9.880;2023-12-20T08:59:20;25.15;;;3.13;;
39958;SDS011;25639;53.634;9.880;2023-12-20T09:01:45;24.65;;;3.25;;
39958;SDS011;25639;53.634;9.880;2023-12-20T09:04:11;24.60;;;3.10;;
39958;SDS011;25639;53.634;9.880;2023-12-20T09:06:36;22.27;;;3.08;;
39958;SDS011;25639;53.634;9.880;2023-12-20T09:09:02;19.88;;;2.50;;
39958;SDS011;25639;53.634;9.880;2023-12-20T09:11:27;17.70;;;3.00;;
39958;SDS011;25639;53.634;9.880;2023-12-20T09:13:52;19.23;;;2.95;;
39958;SDS011;25639;53.634;9.880;2023-12-20T09:16:18;20.98;;;4.32;;
39958;SDS011;25639;53.634;9.880;2023-12-20T09:18:43;19.05;;;2.40;;
39958;SDS011;25639;53.634;9.880;2023-12-20T09:21:08;13.57;;;2.42;;
39958;SDS011;25639;53.634;9.880;2023-12-20T09:23:34;13.38;;;2.03;;
39958;SDS011;25639;53.634;9.880;2023-12-20T09:25:59;11.95;;;1.30;;
39958;SDS011;25639;53.634;9.880;2023-12-20T09:28:24;9.20;;;1.60;;
39958;SDS011;25639;53.634;9.880;2023-12-20T09:30:50;6.95;;;1.10;;
39958;SDS011;25639;53.634;9.880;2023-12-20T09:33:15;9.80;;;1.38;;
39958;SDS011;25639;53.634;9.880;2023-12-20T09:35:41;4.43;;;1.60;;
39958;SDS011;25639;53.634;9.880;2023-12-20T09:38:07;12.48;;;2.05;;
39958;SDS011;25639;53.634;9.880;2023-12-20T09:40:32;12.52;;;1.77;;
39958;SDS011;25639;53.634;9.880;2023-12-20T09:43:08;9.48;;;0.80;;
39958;SDS011;25639;53.634;9.880;2023-12-20T09:45:36;5.05;;;0.80;;
39958;SDS011;25639;53.634;9.880;2023-12-20T09:48:03;3.10;;;0.60;;
39958;SDS011;25639;53.634;9.880;2023-12-20T09:50:30;3.42;;;0.98;;
39958;SDS011;25639;53.634;9.880;2023-12-20T09:52:57;5.78;;;0.90;;
39958;SDS011;25639;53.634;9.880;2023-12-20T09:55:24;2.10;;;0.47;;
39958;SDS011;25639;53.634;9.880;2023-12-20T09:57:50;2.92;;;0.57;;
39958;SDS011;25639;53.634;9.880;2023-12-20T10:00:15;3.13;;;0.50;;
39958;SDS011;25639;53.634;9.880;2023-12-20T10:02:55;7.20;;;0.95;;
39958;SDS011;25639;53.634;9.880;2023-12-20T10:05:27;8.45;;;0.70;;
39958;SDS011;25639;53.634;9.880;2023-12-20T10:07:53;6.75;;;1.73;;
39958;SDS011;25639;53.634;9.880;2023-12-20T10:10:19;6.68;;;0.60;;
39958;SDS011;25639;53.634;9.880;2023-12-20T10:15:33;8.57;;;0.82;;
39958;SDS011;25639;53.634;9.880;2023-12-20T10:17:59;5.30;;;1.00;;
39958;SDS011;25639;53.634;9.880;2023-12-20T10:20:25;7.07;;;1.23;;
39958;SDS011;25639;53.634;9.880;2023-12-20T10:22:51;4.22;;;0.95;;
39958;SDS011;25639;53.634;9.880;2023-12-20T10:25:18;7.70;;;1.58;;
39958;SDS011;25639;53.634;9.880;2023-12-20T10:27:44;4.75;;;0.85;;
39958;SDS011;25639;53.634;9.880;2023-12-20T10:30:10;6.22;;;0.80;;
39958;SDS011;25639;53.634;9.880;2023-12-20T10:32:35;7.30;;;0.98;;
39958;SDS011;25639;53.634;9.880;2023-12-20T10:35:01;7.07;;;0.98;;
39958;SDS011;25639;53.634;9.880;2023-12-20T10:37:27;3.90;;;0.50;;
39958;SDS011;25639;53.634;9.880;2023-12-20T10:39:53;7.70;;;1.55;;
39958;SDS011;25639;53.634;9.880;2023-12-20T10:42:22;8.93;;;0.77;;
39958;SDS011;25639;53.634;9.880;2023-12-20T10:44:51;6.90;;;0.77;;
39958;SDS011;25639;53.634;9.880;2023-12-20T10:47:19;5.97;;;0.82;;
39958;SDS011;25639;53.634;9.880;2023-12-20T10:49:44;7.03;;;1.17;;
39958;SDS011;25639;53.634;9.880;2023-12-20T10:52:11;4.68;;;0.88;;
39958;SDS011;25639;53.634;9.880;2023-12-20T10:54:38;5.57;;;1.00;;
39958;SDS011;25639;53.634;9.880;2023-12-20T10:57:05;5.85;;;1.00;;
39958;SDS011;25639;53.634;9.880;2023-12-20T10:59:32;7.25;;;1.10;;
39958;SDS011;25639;53.634;9.880;2023-12-20T11:01:59;4.13;;;1.10;;
39958;SDS011;25639;53.634;9.880;2023-12-20T11:04:31;7.13;;;1.17;;
39958;SDS011;25639;53.634;9.880;2023-12-20T11:07:21;7.80;;;1.10;;
39958;SDS011;25639;53.634;9.880;2023-12-20T11:10:35;10.93;;;1.42;;
39958;SDS011;25639;53.634;9.880;2023-12-20T11:12:52;17.30;;;1.85;;
39958;SDS011;25639;53.634;9.880;2023-12-20T11:15:22;26.15;;;2.60;;
39958;SDS011;25639;53.634;9.880;2023-12-20T11:17:56;12.27;;;1.65;;
39958;SDS011;25639;53.634;9.880;2023-12-20T11:20:22;9.55;;;1.33;;
39958;SDS011;25639;53.634;9.880;2023-12-20T11:22:52;2.97;;;0.55;;
39958;SDS011;25639;53.634;9.880;2023-12-20T11:25:19;5.88;;;0.50;;
39958;SDS011;25639;53.634;9.880;2023-12-20T11:27:44;4.63;;;0.52;;
39958;SDS011;25639;53.634;9.880;2023-12-20T11:30:46;6.75;;;0.80;;
39958;SDS011;25639;53.634;9.880;2023-12-20T11:33:13;4.35;;;1.00;;
39958;SDS011;25639;53.634;9.880;2023-12-20T11:35:40;7.35;;;1.77;;
39958;SDS011;25639;53.634;9.880;2023-12-20T11:38:09;9.90;;;1.80;;
39958;SDS011;25639;53.634;9.880;2023-12-20T11:40:35;10.15;;;1.63;;
39958;SDS011;25639;53.634;9.880;2023-12-20T11:43:02;11.35;;;1.83;;
39958;SDS011;25639;53.634;9.880;2023-12-20T11:45:28;20.95;;;2.35;;
39958;SDS011;25639;53.634;9.880;2023-12-20T11:47:53;21.83;;;2.20;;
39958;SDS011;25639;53.634;9.880;2023-12-20T11:50:20;22.55;;;2.10;;
39958;SDS011;25639;53.634;9.880;2023-12-20T11:52:47;18.90;;;2.13;;
39958;SDS011;25639;53.634;9.880;2023-12-20T11:55:13;14.48;;;1.52;;
39958;SDS011;25639;53.634;9.880;2023-12-20T11:57:38;20.33;;;3.00;;
39958;SDS011;25639;53.634;9.880;2023-12-20T12:00:04;22.38;;;2.20;;
39958;SDS011;25639;53.634;9.880;2023-12-20T12:02:31;25.42;;;3.25;;
39958;SDS011;25639;53.634;9.880;2023-12-20T12:04:56;16.10;;;2.40;;
39958;SDS011;25639;53.634;9.880;2023-12-20T12:07:23;29.35;;;4.15;;
39958;SDS011;25639;53.634;9.880;2023-12-20T12:09:49;34.50;;;3.22;;
39958;SDS011;25639;53.634;9.880;2023-12-20T12:12:14;26.40;;;2.63;;
39958;SDS011;25639;53.634;9.880;2023-12-20T12:14:40;28.77;;;2.97;;
39958;SDS011;25639;53.634;9.880;2023-12-20T12:17:09;21.23;;;3.13;;
39958;SDS011;25639;53.634;9.880;2023-12-20T12:19:39;21.70;;;3.03;;
39958;SDS011;25639;53.634;9.880;2023-12-20T12:22:09;29.52;;;2.17;;
39958;SDS011;25639;53.634;9.880;2023-12-20T12:24:38;19.30;;;3.00;;
39958;SDS011;25639;53.634;9.880;2023-12-20T12:27:05;19.77;;;2.47;;
39958;SDS011;25639;53.634;9.880;2023-12-20T12:29:32;21.38;;;3.42;;
39958;SDS011;25639;53.634;9.880;2023-12-20T12:31:57;29.95;;;3.20;;
39958;SDS011;25639;53.634;9.880;2023-12-20T12:34:23;30.40;;;4.00;;
39958;SDS011;25639;53.634;9.880;2023-12-20T12:36:48;27.70;;;3.08;;
39958;SDS011;25639;53.634;9.880;2023-12-20T12:39:14;27.70;;;3.72;;
39958;SDS011;25639;53.634;9.880;2023-12-20T12:41:42;23.65;;;2.40;;
39958;SDS011;25639;53.634;9.880;2023-12-20T12:44:08;19.75;;;2.80;;
39958;SDS011;25639;53.634;9.880;2023-12-20T12:46:33;22.90;;;2.67;;
39958;SDS011;25639;53.634;9.880;2023-12-20T12:48:59;25.15;;;2.95;;
39958;SDS011;25639;53.634;9.880;2023-12-20T12:51:25;20.42;;;2.58;;
39958;SDS011;25639;53.634;9.880;2023-12-20T12:53:50;24.05;;;3.35;;
39958;SDS011;25639;53.634;9.880;2023-12-20T12:56:15;26.35;;;2.95;;
39958;SDS011;25639;53.634;9.880;2023-12-20T12:58:41;26.38;;;3.35;;
39958;SDS011;25639;53.634;9.880;2023-12-20T13:01:07;18.00;;;2.40;;
39958;SDS011;25639;53.634;9.880;2023-12-20T13:03:32;19.33;;;3.03;;
39958;SDS011;25639;53.634;9.880;2023-12-20T13:05:59;28.15;;;3.03;;
39958;SDS011;25639;53.634;9.880;2023-12-20T13:08:24;21.67;;;2.83;;
39958;SDS011;25639;53.634;9.880;2023-12-20T13:10:50;26.13;;;2.88;;
39958;SDS011;25639;53.634;9.880;2023-12-20T13:13:15;23.58;;;3.70;;
39958;SDS011;25639;53.634;9.880;2023-12-20T13:15:40;28.23;;;4.25;;
39958;SDS011;25639;53.634;9.880;2023-12-20T13:18:06;24.35;;;4.03;;
39958;SDS011;25639;53.634;9.880;2023-12-20T13:20:31;22.20;;;3.65;;
39958;SDS011;25639;53.634;9.880;2023-12-20T13:22:58;26.35;;;3.22;;
39958;SDS011;25639;53.634;9.880;2023-12-20T13:25:23;31.30;;;4.30;;
39958;SDS011;25639;53.634;9.880;2023-12-20T13:27:49;20.52;;;3.45;;
39958;SDS011;25639;53.634;9.880;2023-12-20T13:30:15;30.92;;;3.75;;
39958;SDS011;25639;53.634;9.880;2023-12-20T13:32:41;32.67;;;4.22;;
39958;SDS011;25639;53.634;9.880;2023-12-20T13:35:06;34.05;;;4.45;;
39958;SDS011;25639;53.634;9.880;2023-12-20T13:37:32;27.73;;;4.00;;
39958;SDS011;25639;53.634;9.880;2023-12-20T13:39:57;35.65;;;4.50;;
39958;SDS011;25639;53.634;9.880;2023-12-20T13:42:22;28.85;;;3.97;;
39958;SDS011;25639;53.634;9.880;2023-12-20T13:44:48;31.17;;;4.18;;
39958;SDS011;25639;53.634;9.880;2023-12-20T13:47:13;32.40;;;4.40;;
39958;SDS011;25639;53.634;9.880;2023-12-20T13:49:38;28.25;;;4.57;;
39958;SDS011;25639;53.634;9.880;2023-12-20T13:52:03;29.65;;;4.85;;
39958;SDS011;25639;53.634;9.880;2023-12-20T13:54:29;34.38;;;4.93;;
39958;SDS011;25639;53.634;9.880;2023-12-20T13:56:54;33.45;;;5.75;;
39958;SDS011;25639;53.634;9.880;2023-12-20T13:59:20;27.38;;;4.55;;
39958;SDS011;25639;53.634;9.880;2023-12-20T14:01:45;29.92;;;4.90;;
39958;SDS011;25639;53.634;9.880;2023-12-20T14:04:10;26.83;;;4.85;;
39958;SDS011;25639;53.634;9.880;2023-12-20T14:06:36;30.35;;;5.18;;
39958;SDS011;25639;53.634;9.880;2023-12-20T14:09:02;31.20;;;5.00;;
39958;SDS011;25639;53.634;9.880;2023-12-20T14:11:28;33.63;;;6.18;;
39958;SDS011;25639;53.634;9.880;2023-12-20T14:13:53;36.33;;;5.15;;
39958;SDS011;25639;53.634;9.880;2023-12-20T14:16:22;40.17;;;5.40;;
39958;SDS011;25639;53.634;9.880;2023-12-20T14:18:48;33.80;;;5.18;;
39958;SDS011;25639;53.634;9.880;2023-12-20T14:21:14;29.95;;;4.90;;
39958;SDS011;25639;53.634;9.880;2023-12-20T14:23:39;28.63;;;5.18;;
39958;SDS011;25639;53.634;9.880;2023-12-20T14:26:04;30.25;;;5.15;;
39958;SDS011;25639;53.634;9.880;2023-12-20T14:28:30;27.83;;;5.70;;
39958;SDS011;25639;53.634;9.880;2023-12-20T14:30:55;25.88;;;4.80;;